La rose des vents
Donnes mto: Semaine 01/09/08 - 07/09/08 (S 36)
Date Horaire Temp. E. Hum. E. P.atmo. Pluie Vent 1mn Direction Ensoleilleme Ev.Tr. Solaire P. de rose Temp au vent Rafales
01/09/2008 00:00 20,6 C 90 % 1013,4 hPa 0,0 l/m 1,0 km/h (0 Bft) E 0,00 h 0,000 mm 0 W/m 18,9 C 20,6 C 1,6 km/h (1 Bft)
01/09/2008 01:00 20,3 C 91 % 1013,4 hPa 0,0 l/m 1,6 km/h (1 Bft) E 0,00 h 0,025 mm 0 W/m 18,8 C 20,3 C 3,0 km/h (1 Bft)
01/09/2008 02:00 19,6 C 92 % 1013,3 hPa 0,0 l/m 0,7 km/h (0 Bft) E 0,00 h 0,025 mm 0 W/m 18,2 C 19,6 C 1,8 km/h (1 Bft)
01/09/2008 03:00 19,9 C 92 % 1013,1 hPa 0,0 l/m 0,4 km/h (0 Bft) E 0,00 h 0,025 mm 0 W/m 18,5 C 19,9 C 0,9 km/h (0 Bft)
01/09/2008 04:00 19,7 C 92 % 1013,1 hPa 0,0 l/m 2,1 km/h (1 Bft) E 0,00 h 0,025 mm 0 W/m 18,4 C 19,7 C 3,1 km/h (1 Bft)
01/09/2008 05:00 19,6 C 92 % 1013,3 hPa 0,0 l/m 2,7 km/h (1 Bft) O 0,00 h 0,025 mm 0 W/m 18,3 C 19,6 C 4,2 km/h (1 Bft)
01/09/2008 06:00 18,7 C 92 % 1013,3 hPa 0,0 l/m 3,6 km/h (1 Bft) NO 0,00 h 0,025 mm 5 W/m 17,4 C 18,7 C 5,5 km/h (1 Bft)
01/09/2008 07:00 18,7 C 91 % 1013,6 hPa 0,0 l/m 2,2 km/h (1 Bft) NO 0,03 h 0,000 mm 28 W/m 17,2 C 18,7 C 3,6 km/h (1 Bft)
01/09/2008 08:00 19,7 C 86 % 1013,5 hPa 0,0 l/m 1,4 km/h (1 Bft) NO 0,00 h 0,025 mm 94 W/m 17,3 C 19,7 C 2,5 km/h (1 Bft)
01/09/2008 09:00 21,5 C 71 % 1013,7 hPa 0,0 l/m 2,5 km/h (1 Bft) NE 0,18 h 0,051 mm 227 W/m 15,9 C 21,5 C 4,2 km/h (1 Bft)
01/09/2008 10:00 24,1 C 69 % 1014,5 hPa 0,0 l/m 3,9 km/h (1 Bft) E-SE 0,67 h 0,152 mm 391 W/m 18,2 C 24,1 C 6,6 km/h (2 Bft)
01/09/2008 11:00 26,0 C 70 % 1015,1 hPa 0,0 l/m 7,8 km/h (2 Bft) E 0,72 h 0,279 mm 582 W/m 20,0 C 26,0 C 12,0 km/h (2 Bft)
01/09/2008 12:00 27,0 C 67 % 1015,0 hPa 0,0 l/m 9,6 km/h (2 Bft) E 0,58 h 0,381 mm 602 W/m 20,2 C 27,0 C 14,7 km/h (3 Bft)
01/09/2008 13:00 27,4 C 65 % 1014,6 hPa 0,0 l/m 12,1 km/h (2 Bft) E-NE 0,73 h 0,457 mm 606 W/m 20,2 C 27,4 C 17,7 km/h (3 Bft)
01/09/2008 14:00 27,8 C 65 % 1014,1 hPa 0,0 l/m 11,2 km/h (2 Bft) E-NE 0,82 h 0,457 mm 656 W/m 20,5 C 27,8 C 16,7 km/h (3 Bft)
01/09/2008 15:00 27,8 C 64 % 1013,6 hPa 0,0 l/m 7,4 km/h (2 Bft) E-NE 1,00 h 0,508 mm 658 W/m 20,3 C 27,8 C 12,9 km/h (3 Bft)
01/09/2008 16:00 26,7 C 67 % 1013,5 hPa 0,0 l/m 8,4 km/h (2 Bft) E-NE 0,78 h 0,457 mm 435 W/m 20,0 C 26,7 C 12,6 km/h (3 Bft)
01/09/2008 17:00 25,2 C 74 % 1013,3 hPa 0,0 l/m 6,3 km/h (2 Bft) E-NE 0,27 h 0,330 mm 198 W/m 20,2 C 25,2 C 9,5 km/h (2 Bft)
01/09/2008 18:00 24,1 C 79 % 1013,4 hPa 0,0 l/m 4,2 km/h (1 Bft) E-NE 0,00 h 0,152 mm 92 W/m 20,2 C 24,1 C 6,3 km/h (2 Bft)
01/09/2008 19:00 23,0 C 81 % 1013,3 hPa 0,0 l/m 1,6 km/h (1 Bft) E 0,03 h 0,076 mm 21 W/m 19,6 C 23,0 C 3,3 km/h (1 Bft)
01/09/2008 20:00 21,6 C 84 % 1013,2 hPa 0,0 l/m 0,7 km/h (0 Bft) E 0,00 h 0,025 mm 6 W/m 18,7 C 21,6 C 1,6 km/h (1 Bft)
01/09/2008 21:00 21,0 C 86 % 1013,5 hPa 0,0 l/m 0,8 km/h (0 Bft) E 0,00 h 0,000 mm 0 W/m 18,5 C 21,0 C 1,6 km/h (1 Bft)
01/09/2008 22:00 20,3 C 86 % 1013,9 hPa 0,0 l/m 0,5 km/h (0 Bft) E 0,00 h 0,025 mm 0 W/m 17,9 C 20,3 C 1,3 km/h (1 Bft)
01/09/2008 23:00 19,7 C 86 % 1014,0 hPa 0,0 l/m 1,7 km/h (1 Bft) E 0,00 h 0,025 mm 0 W/m 17,2 C 19,7 C 3,5 km/h (1 Bft)
02/09/2008 00:00 19,8 C 86 % 1014,0 hPa 0,0 l/m 2,5 km/h (1 Bft) E-NE 0,00 h 0,025 mm 0 W/m 17,4 C 19,8 C 4,6 km/h (1 Bft)
02/09/2008 01:00 19,4 C 86 % 1014,0 hPa 0,0 l/m 2,3 km/h (1 Bft) E-NE 0,00 h 0,025 mm 0 W/m 17,0 C 19,4 C 4,3 km/h (1 Bft)
02/09/2008 02:00 19,4 C 88 % 1013,9 hPa 0,0 l/m 2,5 km/h (1 Bft) NO 0,00 h 0,025 mm 0 W/m 17,2 C 19,4 C 4,2 km/h (1 Bft)
02/09/2008 03:00 19,2 C 88 % 1013,8 hPa 0,0 l/m 3,6 km/h (1 Bft) O-NO 0,00 h 0,025 mm 0 W/m 17,1 C 19,2 C 5,4 km/h (1 Bft)
02/09/2008 04:00 18,4 C 87 % 1013,6 hPa 0,0 l/m 4,0 km/h (1 Bft) O-NO 0,00 h 0,025 mm 0 W/m 16,2 C 18,4 C 6,0 km/h (2 Bft)
02/09/2008 05:00 18,6 C 87 % 1013,6 hPa 0,0 l/m 2,6 km/h (1 Bft) NO 0,00 h 0,025 mm 0 W/m 16,4 C 18,6 C 4,5 km/h (1 Bft)
02/09/2008 06:00 18,6 C 85 % 1013,5 hPa 0,0 l/m 2,6 km/h (1 Bft) NO 0,00 h 0,025 mm 5 W/m 16,1 C 18,6 C 4,7 km/h (1 Bft)
02/09/2008 07:00 18,2 C 83 % 1013,7 hPa 0,0 l/m 4,1 km/h (1 Bft) NO 0,03 h 0,000 mm 27 W/m 15,2 C 18,2 C 6,4 km/h (2 Bft)
02/09/2008 08:00 19,8 C 77 % 1014,1 hPa 0,0 l/m 4,6 km/h (1 Bft) O-NO 0,27 h 0,025 mm 129 W/m 15,7 C 19,8 C 7,0 km/h (2 Bft)
02/09/2008 09:00 23,5 C 69 % 1014,1 hPa 0,0 l/m 3,1 km/h (1 Bft) E-NE 1,00 h 0,102 mm 357 W/m 17,5 C 23,5 C 5,3 km/h (1 Bft)
02/09/2008 10:00 25,3 C 65 % 1014,1 hPa 0,0 l/m 5,4 km/h (1 Bft) E 1,00 h 0,229 mm 530 W/m 18,2 C 25,3 C 8,5 km/h (2 Bft)
02/09/2008 11:00 26,4 C 61 % 1014,1 hPa 0,0 l/m 8,0 km/h (2 Bft) E 0,88 h 0,381 mm 646 W/m 18,4 C 26,4 C 13,3 km/h (3 Bft)
02/09/2008 12:00 27,1 C 61 % 1013,9 hPa 0,0 l/m 11,3 km/h (2 Bft) E 0,80 h 0,483 mm 702 W/m 18,9 C 27,1 C 16,7 km/h (3 Bft)
02/09/2008 13:00 27,1 C 62 % 1013,3 hPa 0,0 l/m 12,2 km/h (2 Bft) E 0,63 h 0,508 mm 637 W/m 19,2 C 27,1 C 17,6 km/h (3 Bft)
02/09/2008 14:00 27,1 C 61 % 1013,0 hPa 0,0 l/m 9,6 km/h (2 Bft) E 0,78 h 0,483 mm 649 W/m 18,9 C 27,1 C 15,4 km/h (3 Bft)
02/09/2008 15:00 27,0 C 64 % 1012,8 hPa 0,0 l/m 8,8 km/h (2 Bft) S 0,60 h 0,483 mm 538 W/m 19,6 C 27,0 C 14,8 km/h (3 Bft)
02/09/2008 16:00 26,4 C 64 % 1012,4 hPa 0,0 l/m 9,0 km/h (2 Bft) S 0,90 h 0,406 mm 568 W/m 19,0 C 26,4 C 14,7 km/h (3 Bft)
02/09/2008 17:00 26,1 C 64 % 1012,0 hPa 0,0 l/m 8,2 km/h (2 Bft) SE 1,00 h 0,406 mm 358 W/m 18,8 C 26,1 C 12,9 km/h (3 Bft)
02/09/2008 18:00 24,8 C 75 % 1011,7 hPa 0,0 l/m 6,9 km/h (2 Bft) S-SE 0,90 h 0,279 mm 175 W/m 20,1 C 24,8 C 10,8 km/h (2 Bft)
02/09/2008 19:00 23,6 C 79 % 1011,6 hPa 0,0 l/m 3,7 km/h (1 Bft) SE 0,25 h 0,152 mm 42 W/m 19,8 C 23,6 C 6,0 km/h (2 Bft)
02/09/2008 20:00 22,3 C 84 % 1011,6 hPa 0,0 l/m 2,9 km/h (1 Bft) E-NE 0,00 h 0,051 mm 0 W/m 19,4 C 22,3 C 5,1 km/h (1 Bft)
02/09/2008 21:00 21,1 C 87 % 1011,9 hPa 0,0 l/m 1,1 km/h (1 Bft) E-NE 0,00 h 0,025 mm 0 W/m 18,9 C 21,1 C 2,7 km/h (1 Bft)
02/09/2008 22:00 20,6 C 88 % 1012,0 hPa 0,0 l/m 0,6 km/h (0 Bft) E-NE 0,00 h 0,025 mm 0 W/m 18,6 C 20,6 C 1,5 km/h (1 Bft)
02/09/2008 23:00 20,4 C 90 % 1012,0 hPa 0,0 l/m 4,1 km/h (1 Bft) NO 0,00 h 0,025 mm 0 W/m 18,6 C 20,4 C 6,4 km/h (2 Bft)
03/09/2008 00:00 20,0 C 91 % 1012,0 hPa 0,0 l/m 5,7 km/h (1 Bft) O 0,00 h 0,025 mm 0 W/m 18,5 C 20,0 C 7,5 km/h (2 Bft)
03/09/2008 01:00 19,3 C 91 % 1011,9 hPa 0,0 l/m 4,9 km/h (1 Bft) O-NO 0,00 h 0,025 mm 0 W/m 17,8 C 19,3 C 6,6 km/h (2 Bft)
03/09/2008 02:00 19,0 C 89 % 1011,5 hPa 0,0 l/m 1,6 km/h (1 Bft) O-NO 0,00 h 0,025 mm 0 W/m 17,2 C 19,0 C 2,2 km/h (1 Bft)
03/09/2008 03:00 19,3 C 88 % 1011,4 hPa 0,0 l/m 3,5 km/h (1 Bft) O-NO 0,00 h 0,025 mm 0 W/m 17,1 C 19,3 C 4,8 km/h (1 Bft)
03/09/2008 04:00 19,1 C 87 % 1011,2 hPa 0,0 l/m 3,1 km/h (1 Bft) O-NO 0,00 h 0,025 mm 0 W/m 16,9 C 19,1 C 4,5 km/h (1 Bft)
03/09/2008 05:00 18,7 C 87 % 1011,3 hPa 0,0 l/m 3,5 km/h (1 Bft) O-NO 0,00 h 0,025 mm 0 W/m 16,5 C 18,7 C 4,7 km/h (1 Bft)
03/09/2008 06:00 18,3 C 86 % 1011,5 hPa 0,0 l/m 5,6 km/h (1 Bft) O-NO 0,00 h 0,025 mm 5 W/m 16,0 C 18,3 C 7,3 km/h (2 Bft)
03/09/2008 07:00 18,4 C 81 % 1011,9 hPa 0,0 l/m 4,9 km/h (1 Bft) NO 0,07 h 0,025 mm 34 W/m 15,0 C 18,4 C 6,8 km/h (2 Bft)
03/09/2008 08:00 19,9 C 73 % 1012,2 hPa 0,0 l/m 1,1 km/h (1 Bft) NO 0,27 h 0,051 mm 122 W/m 14,9 C 19,9 C 2,3 km/h (1 Bft)
03/09/2008 09:00 23,4 C 65 % 1012,1 hPa 0,0 l/m 1,9 km/h (1 Bft) E-SE 1,00 h 0,076 mm 331 W/m 16,5 C 23,4 C 3,4 km/h (1 Bft)
03/09/2008 10:00 25,6 C 60 % 1012,3 hPa 0,0 l/m 5,1 km/h (1 Bft) E 1,00 h 0,229 mm 514 W/m 17,2 C 25,6 C 8,1 km/h (2 Bft)
03/09/2008 11:00 25,3 C 67 % 1012,3 hPa 0,0 l/m 9,2 km/h (2 Bft) S 0,27 h 0,356 mm 299 W/m 18,7 C 25,3 C 13,5 km/h (3 Bft)
03/09/2008 12:00 25,9 C 69 % 1012,1 hPa 0,0 l/m 11,0 km/h (2 Bft) S 0,45 h 0,254 mm 466 W/m 19,6 C 25,9 C 16,1 km/h (3 Bft)
03/09/2008 13:00 23,4 C 86 % 1012,0 hPa 2,4 l/m 7,9 km/h (2 Bft) S 0,00 h 0,356 mm 106 W/m 20,9 C 23,4 C 11,8 km/h (2 Bft)
03/09/2008 14:00 22,9 C 92 % 1012,0 hPa 0,2 l/m 7,2 km/h (2 Bft) S-SO 0,22 h 0,102 mm 267 W/m 21,6 C 22,9 C 10,1 km/h (2 Bft)
03/09/2008 15:00 24,3 C 85 % 1011,5 hPa 0,0 l/m 7,6 km/h (2 Bft) SO 0,40 h 0,203 mm 399 W/m 21,7 C 24,3 C 10,6 km/h (2 Bft)
03/09/2008 16:00 25,9 C 75 % 1011,0 hPa 0,0 l/m 12,9 km/h (3 Bft) S-SO 0,82 h 0,279 mm 514 W/m 21,1 C 25,9 C 18,3 km/h (3 Bft)
03/09/2008 17:00 25,6 C 73 % 1010,6 hPa 0,0 l/m 16,9 km/h (3 Bft) S-SO 1,00 h 0,381 mm 397 W/m 20,4 C 25,6 C 22,8 km/h (4 Bft)
03/09/2008 18:00 24,4 C 77 % 1010,2 hPa 0,0 l/m 15,7 km/h (3 Bft) S-SO 0,90 h 0,330 mm 189 W/m 20,1 C 24,4 C 20,9 km/h (4 Bft)
03/09/2008 19:00 23,1 C 82 % 1009,9 hPa 0,0 l/m 9,0 km/h (2 Bft) S-SO 0,23 h 0,178 mm 38 W/m 19,8 C 23,1 C 13,0 km/h (3 Bft)
03/09/2008 20:00 21,7 C 87 % 1009,9 hPa 0,0 l/m 1,2 km/h (1 Bft) S-SO 0,00 h 0,051 mm 0 W/m 19,5 C 21,7 C 2,6 km/h (1 Bft)
03/09/2008 21:00 21,4 C 89 % 1010,3 hPa 0,0 l/m 1,4 km/h (1 Bft) SO 0,00 h 0,000 mm 0 W/m 19,4 C 21,4 C 2,9 km/h (1 Bft)
03/09/2008 22:00 20,9 C 91 % 1010,3 hPa 0,0 l/m 3,6 km/h (1 Bft) O-SO 0,00 h 0,025 mm 0 W/m 19,3 C 20,9 C 5,7 km/h (1 Bft)
03/09/2008 23:00 19,9 C 91 % 1010,4 hPa 0,0 l/m 4,6 km/h (1 Bft) O-SO 0,00 h 0,025 mm 0 W/m 18,4 C 19,9 C 6,3 km/h (2 Bft)
04/09/2008 00:00 19,1 C 92 % 1010,3 hPa 0,0 l/m 2,4 km/h (1 Bft) NO 0,00 h 0,025 mm 0 W/m 17,7 C 19,1 C 3,9 km/h (1 Bft)
04/09/2008 01:00 18,7 C 92 % 1010,3 hPa 0,0 l/m 2,2 km/h (1 Bft) NO 0,00 h 0,025 mm 0 W/m 17,3 C 18,7 C 4,1 km/h (1 Bft)
04/09/2008 02:00 18,2 C 92 % 1010,3 hPa 0,0 l/m 3,1 km/h (1 Bft) NO 0,00 h 0,025 mm 0 W/m 16,9 C 18,2 C 5,0 km/h (1 Bft)
04/09/2008 03:00 18,2 C 92 % 1009,9 hPa 0,2 l/m 3,5 km/h (1 Bft) NO 0,00 h 0,025 mm 0 W/m 16,8 C 18,2 C 5,6 km/h (1 Bft)
04/09/2008 04:00 18,1 C 91 % 1009,7 hPa 0,0 l/m 3,1 km/h (1 Bft) NO 0,00 h 0,025 mm 0 W/m 16,6 C 18,1 C 5,2 km/h (1 Bft)
04/09/2008 05:00 18,5 C 89 % 1009,5 hPa 0,0 l/m 5,4 km/h (1 Bft) O-NO 0,00 h 0,025 mm 0 W/m 16,6 C 18,5 C 7,8 km/h (2 Bft)
04/09/2008 06:00 18,8 C 85 % 1009,1 hPa 0,0 l/m 2,6 km/h (1 Bft) NO 0,00 h 0,025 mm 5 W/m 16,2 C 18,8 C 3,9 km/h (1 Bft)
04/09/2008 07:00 18,7 C 85 % 1009,4 hPa 0,0 l/m 3,5 km/h (1 Bft) N-NO 0,53 h 0,000 mm 41 W/m 16,1 C 18,7 C 5,9 km/h (2 Bft)
04/09/2008 08:00 20,9 C 78 % 1009,5 hPa 0,0 l/m 2,4 km/h (1 Bft) N-NO 0,48 h 0,025 mm 149 W/m 17,0 C 20,9 C 4,8 km/h (1 Bft)
04/09/2008 09:00 22,7 C 71 % 1009,6 hPa 0,0 l/m 3,3 km/h (1 Bft) NE 0,78 h 0,102 mm 297 W/m 17,2 C 22,7 C 5,8 km/h (2 Bft)
04/09/2008 10:00 25,3 C 63 % 1009,8 hPa 0,0 l/m 6,7 km/h (2 Bft) NE 1,00 h 0,203 mm 521 W/m 17,8 C 25,3 C 10,6 km/h (2 Bft)
04/09/2008 11:00 26,7 C 58 % 1010,1 hPa 0,0 l/m 7,1 km/h (2 Bft) E 1,00 h 0,381 mm 663 W/m 17,8 C 26,7 C 11,6 km/h (2 Bft)
04/09/2008 12:00 24,9 C 72 % 1010,1 hPa 0,0 l/m 9,9 km/h (2 Bft) E 0,00 h 0,457 mm 246 W/m 19,5 C 24,9 C 14,8 km/h (3 Bft)
04/09/2008 13:00 24,9 C 76 % 1010,2 hPa 0,0 l/m 9,1 km/h (2 Bft) E 0,20 h 0,203 mm 375 W/m 20,4 C 24,9 C 13,4 km/h (3 Bft)
04/09/2008 14:00 25,5 C 73 % 1010,1 hPa 0,0 l/m 8,0 km/h (2 Bft) E 0,25 h 0,279 mm 376 W/m 20,3 C 25,5 C 11,9 km/h (2 Bft)
04/09/2008 15:00 25,7 C 71 % 1009,5 hPa 0,0 l/m 8,4 km/h (2 Bft) E 0,50 h 0,279 mm 456 W/m 20,0 C 25,7 C 12,8 km/h (3 Bft)
04/09/2008 16:00 25,3 C 74 % 1009,3 hPa 0,0 l/m 7,3 km/h (2 Bft) E 0,37 h 0,356 mm 297 W/m 20,3 C 25,3 C 11,6 km/h (2 Bft)
04/09/2008 17:00 24,4 C 79 % 1009,0 hPa 0,0 l/m 6,1 km/h (2 Bft) E 0,00 h 0,229 mm 173 W/m 20,5 C 24,4 C 8,9 km/h (2 Bft)
04/09/2008 18:00 24,1 C 81 % 1008,6 hPa 0,8 l/m 2,3 km/h (1 Bft) E-SE 0,00 h 0,127 mm 42 W/m 20,7 C 24,1 C 4,0 km/h (1 Bft)
04/09/2008 19:00 22,5 C 88 % 1008,3 hPa 0,0 l/m 2,0 km/h (1 Bft) E-SE 0,00 h 0,051 mm 9 W/m 20,4 C 22,5 C 3,6 km/h (1 Bft)
04/09/2008 20:00 21,5 C 90 % 1008,3 hPa 0,0 l/m 1,6 km/h (1 Bft) N 0,00 h 0,025 mm 0 W/m 19,9 C 21,5 C 3,1 km/h (1 Bft)
04/09/2008 21:00 22,2 C 92 % 1008,6 hPa 0,0 l/m 2,4 km/h (1 Bft) E-SE 0,00 h 0,000 mm 0 W/m 20,9 C 22,2 C 4,5 km/h (1 Bft)
04/09/2008 22:00 22,2 C 93 % 1008,2 hPa 0,0 l/m 1,5 km/h (1 Bft) E 0,00 h 0,025 mm 0 W/m 21,0 C 22,2 C 2,7 km/h (1 Bft)
04/09/2008 23:00 21,3 C 93 % 1008,4 hPa 0,0 l/m 2,1 km/h (1 Bft) N 0,00 h 0,025 mm 0 W/m 20,1 C 21,3 C 4,1 km/h (1 Bft)
05/09/2008 00:00 19,9 C 94 % 1008,8 hPa 0,0 l/m 4,4 km/h (1 Bft) N-NO 0,00 h 0,025 mm 0 W/m 18,9 C 19,9 C 6,7 km/h (2 Bft)
05/09/2008 01:00 19,7 C 94 % 1009,2 hPa 0,0 l/m 4,7 km/h (1 Bft) NO 0,00 h 0,025 mm 0 W/m 18,7 C 19,7 C 7,4 km/h (2 Bft)
05/09/2008 02:00 19,5 C 94 % 1008,8 hPa 0,2 l/m 4,3 km/h (1 Bft) NO 0,00 h 0,025 mm 0 W/m 18,5 C 19,5 C 6,4 km/h (2 Bft)
05/09/2008 03:00 19,3 C 93 % 1008,7 hPa 0,0 l/m 2,1 km/h (1 Bft) NO 0,00 h 0,025 mm 0 W/m 18,2 C 19,3 C 3,5 km/h (1 Bft)
05/09/2008 04:00 18,9 C 93 % 1008,8 hPa 0,0 l/m 3,8 km/h (1 Bft) O 0,00 h 0,025 mm 0 W/m 17,7 C 18,9 C 5,8 km/h (2 Bft)
05/09/2008 05:00 18,7 C 91 % 1008,7 hPa 0,0 l/m 2,4 km/h (1 Bft) N-NO 0,00 h 0,025 mm 0 W/m 17,2 C 18,7 C 3,8 km/h (1 Bft)
05/09/2008 06:00 18,7 C 90 % 1008,8 hPa 0,0 l/m 3,0 km/h (1 Bft) NO 0,00 h 0,025 mm 0 W/m 17,0 C 18,7 C 4,8 km/h (1 Bft)
05/09/2008 07:00 18,7 C 88 % 1009,0 hPa 0,0 l/m 5,0 km/h (1 Bft) NO 0,02 h 0,000 mm 34 W/m 16,7 C 18,7 C 7,4 km/h (2 Bft)
05/09/2008 08:00 19,8 C 84 % 1009,4 hPa 0,0 l/m 0,6 km/h (0 Bft) NO 0,00 h 0,025 mm 63 W/m 17,0 C 19,8 C 1,3 km/h (1 Bft)
05/09/2008 09:00 22,8 C 71 % 1009,5 hPa 0,0 l/m 2,2 km/h (1 Bft) N-NO 0,98 h 0,051 mm 341 W/m 17,1 C 22,8 C 4,6 km/h (1 Bft)
05/09/2008 10:00 26,3 C 64 % 1009,5 hPa 0,0 l/m 9,3 km/h (2 Bft) E-NE 1,00 h 0,229 mm 511 W/m 18,8 C 26,3 C 13,0 km/h (3 Bft)
05/09/2008 11:00 27,5 C 61 % 1010,0 hPa 0,0 l/m 9,5 km/h (2 Bft) E 1,00 h 0,381 mm 631 W/m 19,3 C 27,5 C 14,9 km/h (3 Bft)
05/09/2008 12:00 27,5 C 68 % 1010,2 hPa 0,0 l/m 10,8 km/h (2 Bft) E-NE 0,77 h 0,483 mm 648 W/m 20,9 C 27,5 C 16,7 km/h (3 Bft)
05/09/2008 13:00 28,1 C 64 % 1010,1 hPa 0,0 l/m 11,4 km/h (2 Bft) E 0,87 h 0,483 mm 720 W/m 20,6 C 28,1 C 16,8 km/h (3 Bft)
05/09/2008 14:00 29,2 C 55 % 1009,6 hPa 0,0 l/m 8,7 km/h (2 Bft) E 0,88 h 0,533 mm 654 W/m 19,2 C 29,2 C 13,3 km/h (3 Bft)
05/09/2008 15:00 28,1 C 62 % 1009,3 hPa 0,0 l/m 9,1 km/h (2 Bft) E 0,88 h 0,508 mm 545 W/m 20,0 C 28,1 C 14,2 km/h (3 Bft)
05/09/2008 16:00 27,8 C 66 % 1009,2 hPa 0,0 l/m 8,4 km/h (2 Bft) E 0,97 h 0,432 mm 499 W/m 20,8 C 27,8 C 15,5 km/h (3 Bft)
05/09/2008 17:00 26,7 C 74 % 1009,6 hPa 0,0 l/m 11,0 km/h (2 Bft) E 0,52 h 0,381 mm 273 W/m 21,7 C 26,7 C 17,1 km/h (3 Bft)
05/09/2008 18:00 25,4 C 80 % 1009,1 hPa 0,0 l/m 10,3 km/h (2 Bft) E-NE 0,07 h 0,229 mm 61 W/m 21,6 C 25,4 C 15,0 km/h (3 Bft)
05/09/2008 19:00 24,1 C 84 % 1008,6 hPa 0,0 l/m 7,9 km/h (2 Bft) E-NE 0,02 h 0,076 mm 25 W/m 21,3 C 24,1 C 11,5 km/h (2 Bft)
05/09/2008 20:00 23,3 C 86 % 1008,2 hPa 0,0 l/m 7,6 km/h (2 Bft) NE 0,00 h 0,051 mm 0 W/m 20,8 C 23,3 C 10,9 km/h (2 Bft)
05/09/2008 21:00 22,7 C 86 % 1008,2 hPa 0,0 l/m 1,8 km/h (1 Bft) N 0,00 h 0,025 mm 0 W/m 20,2 C 22,7 C 3,9 km/h (1 Bft)
05/09/2008 22:00 22,4 C 87 % 1008,3 hPa 0,0 l/m 1,4 km/h (1 Bft) N-NO 0,00 h 0,025 mm 0 W/m 20,1 C 22,4 C 2,9 km/h (1 Bft)
05/09/2008 23:00 22,4 C 89 % 1008,6 hPa 0,0 l/m 0,8 km/h (0 Bft) O-SO 0,00 h 0,025 mm 0 W/m 20,4 C 22,4 C 1,5 km/h (1 Bft)
06/09/2008 00:00 22,3 C 90 % 1008,7 hPa 0,0 l/m 0,5 km/h (0 Bft) O 0,00 h 0,025 mm 0 W/m 20,5 C 22,3 C 1,2 km/h (1 Bft)
06/09/2008 01:00 21,6 C 91 % 1009,0 hPa 0,0 l/m 0,1 km/h (0 Bft) O 0,00 h 0,025 mm 0 W/m 20,0 C 21,6 C 0,7 km/h (0 Bft)
06/09/2008 02:00 21,3 C 91 % 1008,9 hPa 0,0 l/m 1,8 km/h (1 Bft) O 0,00 h 0,025 mm 0 W/m 19,7 C 21,3 C 3,3 km/h (1 Bft)
06/09/2008 03:00 20,7 C 91 % 1008,6 hPa 0,0 l/m 1,3 km/h (1 Bft) NO 0,00 h 0,025 mm 0 W/m 19,2 C 20,7 C 2,7 km/h (1 Bft)
06/09/2008 04:00 20,5 C 90 % 1008,3 hPa 0,0 l/m 0,9 km/h (0 Bft) NO 0,00 h 0,025 mm 0 W/m 18,8 C 20,5 C 2,1 km/h (1 Bft)
06/09/2008 05:00 20,2 C 88 % 1008,2 hPa 0,0 l/m 1,8 km/h (1 Bft) E-NE 0,00 h 0,025 mm 0 W/m 18,2 C 20,2 C 3,2 km/h (1 Bft)
06/09/2008 06:00 19,7 C 88 % 1008,5 hPa 0,0 l/m 3,7 km/h (1 Bft) N 0,00 h 0,025 mm 0 W/m 17,6 C 19,7 C 7,1 km/h (2 Bft)
06/09/2008 07:00 20,0 C 88 % 1008,6 hPa 0,0 l/m 4,3 km/h (1 Bft) N-NO 0,03 h 0,025 mm 24 W/m 17,9 C 20,0 C 6,9 km/h (2 Bft)
06/09/2008 08:00 21,7 C 84 % 1008,8 hPa 0,0 l/m 2,1 km/h (1 Bft) N-NO 0,05 h 0,025 mm 110 W/m 18,8 C 21,7 C 4,2 km/h (1 Bft)
06/09/2008 09:00 24,3 C 71 % 1008,9 hPa 0,0 l/m 3,8 km/h (1 Bft) NE 0,50 h 0,076 mm 266 W/m 18,6 C 24,3 C 5,9 km/h (2 Bft)
06/09/2008 10:00 27,0 C 63 % 1009,0 hPa 0,0 l/m 7,8 km/h (2 Bft) E 1,00 h 0,178 mm 506 W/m 19,3 C 27,0 C 11,4 km/h (2 Bft)
06/09/2008 11:00 28,1 C 63 % 1009,1 hPa 0,0 l/m 7,1 km/h (2 Bft) E 1,00 h 0,381 mm 658 W/m 20,4 C 28,1 C 12,7 km/h (3 Bft)
06/09/2008 12:00 28,7 C 63 % 1009,1 hPa 0,0 l/m 11,2 km/h (2 Bft) E 0,97 h 0,483 mm 761 W/m 20,9 C 28,7 C 17,2 km/h (3 Bft)
06/09/2008 13:00 28,5 C 64 % 1009,1 hPa 0,0 l/m 9,4 km/h (2 Bft) S 0,88 h 0,559 mm 727 W/m 21,0 C 28,5 C 16,3 km/h (3 Bft)
06/09/2008 14:00 28,4 C 64 % 1008,9 hPa 0,0 l/m 10,1 km/h (2 Bft) S-SE 1,00 h 0,533 mm 726 W/m 21,0 C 28,4 C 16,1 km/h (3 Bft)
06/09/2008 15:00 28,0 C 63 % 1008,8 hPa 0,0 l/m 10,9 km/h (2 Bft) S-SE 0,88 h 0,508 mm 584 W/m 20,2 C 28,0 C 16,9 km/h (3 Bft)
06/09/2008 16:00 27,8 C 66 % 1008,4 hPa 0,0 l/m 10,9 km/h (2 Bft) S-SE 0,98 h 0,457 mm 540 W/m 20,9 C 27,8 C 16,7 km/h (3 Bft)
06/09/2008 17:00 27,0 C 70 % 1008,1 hPa 0,0 l/m 6,7 km/h (2 Bft) S-SE 0,70 h 0,406 mm 313 W/m 21,0 C 27,0 C 11,8 km/h (2 Bft)
06/09/2008 18:00 25,4 C 77 % 1007,7 hPa 0,0 l/m 7,0 km/h (2 Bft) S-SE 0,47 h 0,254 mm 127 W/m 21,1 C 25,4 C 11,0 km/h (2 Bft)
06/09/2008 19:00 24,5 C 82 % 1007,7 hPa 0,0 l/m 7,0 km/h (2 Bft) S-SE 0,07 h 0,102 mm 23 W/m 21,2 C 24,5 C 9,9 km/h (2 Bft)
06/09/2008 20:00 23,6 C 87 % 1007,5 hPa 0,0 l/m 5,3 km/h (1 Bft) S 0,00 h 0,051 mm 0 W/m 21,3 C 23,6 C 7,5 km/h (2 Bft)
06/09/2008 21:00 22,8 C 90 % 1007,8 hPa 0,0 l/m 5,3 km/h (1 Bft) S 0,00 h 0,025 mm 0 W/m 21,0 C 22,8 C 7,1 km/h (2 Bft)
06/09/2008 22:00 22,4 C 92 % 1008,0 hPa 0,0 l/m 5,4 km/h (1 Bft) SO 0,00 h 0,025 mm 0 W/m 21,1 C 22,4 C 7,3 km/h (2 Bft)
06/09/2008 23:00 22,1 C 93 % 1008,2 hPa 0,0 l/m 2,1 km/h (1 Bft) O-SO 0,00 h 0,025 mm 0 W/m 20,9 C 22,1 C 3,4 km/h (1 Bft)
07/09/2008 00:00 21,5 C 93 % 1008,2 hPa 0,0 l/m 2,7 km/h (1 Bft) O 0,00 h 0,025 mm 0 W/m 20,4 C 21,5 C 4,1 km/h (1 Bft)
07/09/2008 01:00 21,0 C 93 % 1008,1 hPa 0,0 l/m 5,2 km/h (1 Bft) O 0,00 h 0,025 mm 0 W/m 19,8 C 21,0 C 7,6 km/h (2 Bft)
07/09/2008 02:00 20,6 C 91 % 1008,4 hPa 2,0 l/m 9,5 km/h (2 Bft) O 0,00 h 0,025 mm 0 W/m 19,1 C 20,6 C 13,8 km/h (3 Bft)
07/09/2008 03:00 19,6 C 92 % 1008,2 hPa 0,2 l/m 2,5 km/h (1 Bft) NO 0,00 h 0,025 mm 0 W/m 18,3 C 19,6 C 3,7 km/h (1 Bft)
07/09/2008 04:00 19,3 C 93 % 1008,2 hPa 0,2 l/m 4,8 km/h (1 Bft) O-NO 0,00 h 0,025 mm 0 W/m 18,2 C 19,3 C 6,6 km/h (2 Bft)
07/09/2008 05:00 18,8 C 94 % 1008,2 hPa 0,0 l/m 7,4 km/h (2 Bft) O 0,00 h 0,025 mm 0 W/m 17,8 C 18,8 C 9,8 km/h (2 Bft)
07/09/2008 06:00 18,4 C 95 % 1007,9 hPa 0,0 l/m 4,0 km/h (1 Bft) O-NO 0,00 h 0,025 mm 0 W/m 17,6 C 18,4 C 5,4 km/h (1 Bft)
07/09/2008 07:00 18,3 C 95 % 1008,2 hPa 0,2 l/m 2,5 km/h (1 Bft) SO 0,00 h 0,000 mm 21 W/m 17,5 C 18,3 C 3,3 km/h (1 Bft)
07/09/2008 08:00 18,4 C 96 % 1008,7 hPa 0,0 l/m 5,8 km/h (1 Bft) O 0,00 h 0,025 mm 34 W/m 17,7 C 18,4 C 7,6 km/h (2 Bft)
07/09/2008 09:00 18,6 C 96 % 1008,8 hPa 0,0 l/m 5,6 km/h (1 Bft) O 0,00 h 0,025 mm 97 W/m 17,9 C 18,6 C 8,0 km/h (2 Bft)
07/09/2008 10:00 20,1 C 92 % 1009,2 hPa 0,0 l/m 2,1 km/h (1 Bft) S-SE 0,50 h 0,051 mm 386 W/m 18,7 C 20,1 C 3,7 km/h (1 Bft)
07/09/2008 11:00 22,9 C 67 % 1009,2 hPa 0,0 l/m 14,7 km/h (3 Bft) SO 0,70 h 0,229 mm 565 W/m 16,3 C 22,9 C 19,8 km/h (3 Bft)
07/09/2008 12:00 25,9 C 42 % 1008,9 hPa 0,0 l/m 25,0 km/h (4 Bft) SO 1,00 h 0,432 mm 754 W/m 11,9 C 25,9 C 33,0 km/h (5 Bft)
07/09/2008 13:00 27,2 C 30 % 1008,4 hPa 0,0 l/m 27,2 km/h (4 Bft) SO 1,00 h 0,711 mm 775 W/m 8,2 C 27,2 C 36,7 km/h (5 Bft)
07/09/2008 14:00 28,1 C 25 % 1007,9 hPa 0,0 l/m 30,1 km/h (5 Bft) SO 1,00 h 0,813 mm 753 W/m 6,5 C 28,1 C 40,5 km/h (6 Bft)
07/09/2008 15:00 28,8 C 25 % 1007,4 hPa 0,0 l/m 29,7 km/h (5 Bft) SO 1,00 h 0,864 mm 674 W/m 6,5 C 28,8 C 40,7 km/h (6 Bft)
07/09/2008 16:00 28,3 C 24 % 1007,2 hPa 0,0 l/m 34,9 km/h (5 Bft) SO 1,00 h 0,838 mm 549 W/m 5,8 C 28,3 C 44,8 km/h (6 Bft)
07/09/2008 17:00 27,5 C 24 % 1007,5 hPa 0,0 l/m 33,9 km/h (5 Bft) SO 1,00 h 0,813 mm 382 W/m 5,3 C 27,5 C 44,0 km/h (6 Bft)
07/09/2008 18:00 26,5 C 28 % 1007,7 hPa 0,0 l/m 28,3 km/h (4 Bft) SO 1,00 h 0,660 mm 203 W/m 6,3 C 26,5 C 37,1 km/h (5 Bft)
07/09/2008 19:00 24,3 C 32 % 1007,8 hPa 0,0 l/m 26,7 km/h (4 Bft) SO 0,37 h 0,457 mm 41 W/m 6,4 C 24,3 C 34,5 km/h (5 Bft)
07/09/2008 20:00 22,3 C 37 % 1008,2 hPa 0,0 l/m 26,3 km/h (4 Bft) SO 0,00 h 0,305 mm 0 W/m 6,8 C 22,3 C 34,6 km/h (5 Bft)
07/09/2008 21:00 20,9 C 37 % 1008,6 hPa 0,0 l/m 20,3 km/h (4 Bft) O-SO 0,00 h 0,254 mm 0 W/m 5,7 C 20,9 C 27,1 km/h (4 Bft)
07/09/2008 22:00 19,9 C 40 % 1008,6 hPa 0,0 l/m 14,1 km/h (3 Bft) O-SO 0,00 h 0,203 mm 0 W/m 5,7 C 19,9 C 19,5 km/h (3 Bft)
07/09/2008 23:00 18,7 C 42 % 1008,6 hPa 0,0 l/m 7,9 km/h (2 Bft) O 0,00 h 0,152 mm 0 W/m 5,5 C 18,7 C 11,2 km/h (2 Bft)
Min-Date _ 02/09/08 07/09/08 07/09/08 - 01/09/08 - - - - 07/09/08 02/09/08 01/09/08
_ Min-Heure 07:15 16:43 16:00 - 00:01 - - - - 16:43 07:15 00:01
Minimum _ 17,9 C 20 % 1007,1 hPa - 0,0 km/h (0 Bft) - - - - 3,0 C 17,9 C 0,0 km/h (0 Bft)
Max-Date _ 05/09/08 07/09/08 01/09/08 03/09/08 07/09/08 - 01/09/08 07/09/08 06/09/08 03/09/08 05/09/08 07/09/08
_ Max-Heure 14:23 10:05 11:30 13:36 17:38 - 07:05 15:00 14:02 15:04 14:23 16:12
Maximum _ 30,0 C 98 % 1015,1 hPa 2,4 l/m 45,1 km/h
SO (6 Bft)
- 0,02 h 0,864 mm 1042 W/m 22,6 C 30,0 C 54,7 km/h
SO (7 Bft)
Moyenne _ 22,6 C 77 % 1010,5 hPa #6,4 l/m 6,6 km/h (2 Bft) E #51:40 h #29,233 mm 343 W/m 18,0 C 22,6 C 9,8 km/h (2 Bft)
Roquefort les pins